Time,TemperatureF,DewpointF,PressureIn,WindDirection,WindDirectionDegrees,WindSpeedMPH,WindSpeedGustMPH,Humidity,HourlyPrecipIn,Conditions,Clouds,dailyrainin,SoftwareType,DateUTC
2013-03-28 00:00:00,29.9,19.6,29.95,WNW,292,0.0,0.0,65,0.00,,---,0.00,VWS V14.01,2013-03-28 06:00:00,
2013-03-28 00:10:00,29.4,19.8,29.95,WNW,292,0.0,0.0,67,0.00,,---,0.00,VWS V14.01,2013-03-28 06:10:00,
2013-03-28 00:20:00,29.7,20.1,29.93,WNW,292,0.0,0.0,67,0.00,,---,0.00,VWS V14.01,2013-03-28 06:20:00,
2013-03-28 00:30:00,30.4,20.8,29.93,WNW,292,0.0,0.0,67,0.00,,---,0.00,VWS V14.01,2013-03-28 06:30:00,
2013-03-28 00:40:00,30.1,20.5,29.93,WNW,292,0.0,0.0,67,0.00,,---,0.00,VWS V14.01,2013-03-28 06:40:00,
2013-03-28 00:50:00,29.8,20.5,29.93,WNW,292,0.0,0.0,68,0.00,,---,0.00,VWS V14.01,2013-03-28 06:50:00,
2013-03-28 01:00:00,30.1,20.5,29.93,WNW,292,0.0,0.0,67,0.00,,---,0.00,VWS V14.01,2013-03-28 07:00:00,
2013-03-28 01:10:00,30.4,21.1,29.89,WNW,292,0.0,3.0,68,0.00,,---,0.00,VWS V14.01,2013-03-28 07:10:00,
2013-03-28 01:20:00,29.1,20.2,29.92,WNW,292,0.0,2.0,69,0.00,,---,0.00,VWS V14.01,2013-03-28 07:20:00,
2013-03-28 01:30:00,28.3,20.4,29.92,WNW,292,0.0,0.0,72,0.00,,---,0.00,VWS V14.01,2013-03-28 07:30:00,
2013-03-28 01:40:00,27.5,20.3,29.92,WNW,292,0.0,0.0,74,0.00,,---,0.00,VWS V14.01,2013-03-28 07:40:00,
2013-03-28 01:50:00,27.5,20.6,29.93,WNW,292,0.0,0.0,75,0.00,,---,0.00,VWS V14.01,2013-03-28 07:50:00,
2013-03-28 02:00:00,27.3,20.1,29.93,WNW,292,0.0,0.0,74,0.00,,---,0.00,VWS V14.01,2013-03-28 08:00:00,
2013-03-28 02:10:00,27.0,20.1,29.93,WNW,292,0.0,0.0,75,0.00,,---,0.00,VWS V14.01,2013-03-28 08:10:00,
2013-03-28 02:20:00,26.9,20.7,29.93,WNW,292,0.0,0.0,77,0.00,,---,0.00,VWS V14.01,2013-03-28 08:20:00,
2013-03-28 02:30:00,27.8,20.9,29.90,WNW,292,0.0,0.0,75,0.00,,---,0.00,VWS V14.01,2013-03-28 08:30:00,
2013-03-28 02:40:00,28.0,20.8,29.90,WNW,292,0.0,0.0,74,0.00,,---,0.00,VWS V14.01,2013-03-28 08:40:00,
2013-03-28 02:50:00,27.2,20.0,29.92,WNW,292,0.0,0.0,74,0.00,,---,0.00,VWS V14.01,2013-03-28 08:50:00,
2013-03-28 03:00:00,26.6,19.4,29.93,WNW,292,0.0,0.0,74,0.00,,---,0.00,VWS V14.01,2013-03-28 09:00:00,
2013-03-28 03:30:00,25.9,19.7,29.92,WNW,292,0.0,0.0,77,0.00,,---,0.00,VWS V14.01,2013-03-28 09:30:00,
2013-03-28 03:40:00,25.6,19.4,29.92,WNW,292,0.0,2.0,77,0.00,,---,0.00,VWS V14.01,2013-03-28 09:40:00,
2013-03-28 03:50:00,26.2,20.0,29.92,WNW,292,0.0,0.0,77,0.00,,---,0.00,VWS V14.01,2013-03-28 09:50:00,
2013-03-28 04:00:00,26.1,18.6,29.92,WNW,292,0.0,0.0,73,0.00,,---,0.00,VWS V14.01,2013-03-28 10:00:00,
2013-03-28 04:10:00,24.9,18.1,29.94,WNW,292,0.0,0.0,75,0.00,,---,0.00,VWS V14.01,2013-03-28 10:10:00,
2013-03-28 05:51:00,24.1,18.2,29.96,WNW,294,0.0,0.0,78,0.00,,---,0.00,VWS V14.01,2013-03-28 11:51:00,
2013-03-28 06:11:00,24.9,18.7,29.98,WNW,294,0.0,3.0,77,0.00,,---,0.00,VWS V14.01,2013-03-28 12:11:00,
2013-03-28 06:41:00,24.7,18.8,29.98,WNW,294,0.0,0.0,78,0.00,,---,0.00,VWS V14.01,2013-03-28 12:41:00,
2013-03-28 07:01:00,23.8,18.0,30.01,WNW,294,0.0,3.0,78,0.00,,---,0.00,VWS V14.01,2013-03-28 13:01:00,
2013-03-28 07:21:00,25.1,17.7,30.02,WNW,294,2.0,4.0,73,0.00,,---,0.00,VWS V14.01,2013-03-28 13:21:00,
2013-03-28 07:31:00,25.1,18.0,30.03,WNW,294,0.0,3.0,74,0.00,,---,0.00,VWS V14.01,2013-03-28 13:31:00,
2013-03-28 08:21:00,27.9,17.0,30.08,WNW,294,5.0,8.0,63,0.00,,---,0.00,VWS V14.01,2013-03-28 14:21:00,
2013-03-28 08:31:00,28.4,18.1,30.08,WNW,294,3.0,5.0,65,0.00,,---,0.00,VWS V14.01,2013-03-28 14:31:00,
2013-03-28 09:31:00,31.9,20.0,30.07,WNW,294,0.0,0.0,61,0.00,,---,0.00,VWS V14.01,2013-03-28 15:31:00,
2013-03-28 09:51:00,34.4,20.8,30.05,WNW,294,0.0,0.0,57,0.00,,---,0.00,VWS V14.01,2013-03-28 15:51:00,
2013-03-28 10:11:00,37.1,22.0,30.03,WNW,294,4.0,6.0,54,0.00,,---,0.00,VWS V14.01,2013-03-28 16:11:00,
2013-03-28 10:31:00,38.5,22.4,30.04,WNW,294,4.0,5.0,52,0.00,,---,0.00,VWS V14.01,2013-03-28 16:31:00,
2013-03-28 11:51:00,46.1,20.6,29.97,WSW,246,0.0,5.0,36,0.00,,---,0.00,VWS V14.01,2013-03-28 17:51:00,
2013-03-28 12:01:00,48.2,21.2,29.94,WSW,244,3.0,7.0,34,0.00,,---,0.00,VWS V14.01,2013-03-28 18:01:00,
2013-03-28 12:11:00,47.3,19.7,29.96,SSW,203,0.0,9.0,33,0.00,,---,0.00,VWS V14.01,2013-03-28 18:11:00,
2013-03-28 12:21:00,47.8,18.6,29.94,South,186,0.0,6.0,31,0.00,,---,0.00,VWS V14.01,2013-03-28 18:21:00,
2013-03-28 12:51:00,49.6,18.7,29.91,SSE,161,1.0,6.0,29,0.00,,---,0.00,VWS V14.01,2013-03-28 18:51:00,
2013-03-28 13:11:00,50.5,17.8,29.92,SE,128,0.0,9.0,27,0.00,,---,0.00,VWS V14.01,2013-03-28 19:11:00,
2013-03-28 13:31:00,50.5,19.5,29.94,South,186,9.0,14.0,29,0.00,,---,0.00,VWS V14.01,2013-03-28 19:31:00,
2013-03-28 13:41:00,50.2,18.4,29.94,South,189,0.0,16.0,28,0.00,,---,0.00,VWS V14.01,2013-03-28 19:41:00,
2013-03-28 14:01:00,51.2,18.4,29.92,SSE,157,0.0,5.0,27,0.00,,---,0.00,VWS V14.01,2013-03-28 20:01:00,
2013-03-28 14:11:00,51.2,18.4,29.92,SSE,154,0.0,7.0,27,0.00,,---,0.00,VWS V14.01,2013-03-28 20:11:00,
2013-03-28 14:21:00,51.2,20.9,29.91,SSE,153,11.0,15.0,30,0.00,,---,0.00,VWS V14.01,2013-03-28 20:21:00,
2013-03-28 14:41:00,48.9,22.5,29.93,South,187,14.0,19.0,35,0.00,,---,0.00,VWS V14.01,2013-03-28 20:41:00,
2013-03-28 15:11:00,48.1,22.4,29.95,NNW,348,5.0,19.0,36,0.00,,---,0.00,VWS V14.01,2013-03-28 21:11:00,
2013-03-28 15:21:00,49.3,22.8,29.95,NE,55,5.0,12.0,35,0.00,,---,0.00,VWS V14.01,2013-03-28 21:21:00,
2013-03-28 15:31:00,48.8,22.4,29.94,NE,34,9.0,14.0,35,0.00,,---,0.00,VWS V14.01,2013-03-28 21:31:00,
2013-03-28 16:11:00,49.2,22.7,29.94,NE,36,9.0,17.0,35,0.00,,---,0.00,VWS V14.01,2013-03-28 22:11:00,
2013-03-28 16:21:00,49.2,22.7,29.94,NE,50,6.0,13.0,35,0.00,,---,0.00,VWS V14.01,2013-03-28 22:21:00,
2013-03-28 16:31:00,49.6,23.1,29.94,East,84,8.0,11.0,35,0.00,,---,0.00,VWS V14.01,2013-03-28 22:31:00,
2013-03-28 16:41:00,48.3,25.7,29.94,NNE,20,16.0,19.0,41,0.00,,---,0.00,VWS V14.01,2013-03-28 22:41:00,
2013-03-28 17:31:00,49.6,23.8,29.93,North,360,10.0,16.0,36,0.00,,---,0.00,VWS V14.01,2013-03-28 23:31:00,
2013-03-28 17:41:00,49.7,23.2,29.93,North,360,15.0,17.0,35,0.00,,---,0.00,VWS V14.01,2013-03-28 23:41:00,
2013-03-28 17:51:00,49.5,23.0,29.94,North,360,14.0,22.0,35,0.00,,---,0.00,VWS V14.01,2013-03-28 23:51:00,
2013-03-28 18:21:00,46.1,25.4,29.98,North,5,16.0,22.0,44,0.00,,---,0.00,VWS V14.01,2013-03-29 00:21:00,
2013-03-28 18:31:00,45.0,25.5,30.00,North,360,17.0,24.0,46,0.00,,---,0.00,VWS V14.01,2013-03-29 00:31:00,
2013-03-28 18:51:00,44.7,25.2,30.00,North,360,19.0,19.0,46,0.00,,---,0.00,VWS V14.01,2013-03-29 00:51:00,
2013-03-28 20:21:00,42.7,23.9,30.00,NNE,26,1.0,15.0,47,0.00,,---,0.00,VWS V14.01,2013-03-29 02:21:00,
2013-03-28 21:01:00,40.9,24.2,30.03,NNE,25,6.0,9.0,51,0.00,,---,0.00,VWS V14.01,2013-03-29 03:01:00,
2013-03-28 21:11:00,40.6,24.4,29.97,NNE,22,2.0,10.0,52,0.00,,---,0.00,VWS V14.01,2013-03-29 03:11:00,
2013-03-28 21:31:00,39.1,24.3,29.99,North,360,9.0,12.0,55,0.00,,---,0.00,VWS V14.01,2013-03-29 03:31:00,
2013-03-28 21:41:00,37.8,23.5,30.01,North,5,0.0,9.0,56,0.00,,---,0.00,VWS V14.01,2013-03-29 03:41:00,
2013-03-28 22:01:00,37.0,23.6,30.02,North,5,0.0,0.0,58,0.00,,---,0.00,VWS V14.01,2013-03-29 04:01:00,
2013-03-28 22:11:00,35.3,22.8,30.00,North,5,0.0,0.0,60,0.00,,---,0.00,VWS V14.01,2013-03-29 04:11:00,
2013-03-28 22:41:00,33.9,22.6,30.02,North,360,0.0,0.0,63,0.00,,---,0.00,VWS V14.01,2013-03-29 04:41:00,
2013-03-28 22:51:00,33.5,22.6,30.02,North,5,0.0,0.0,64,0.00,,---,0.00,VWS V14.01,2013-03-29 04:51:00,
2013-03-28 23:01:00,33.2,22.4,30.02,North,360,0.0,0.0,64,0.00,,---,0.00,VWS V14.01,2013-03-29 05:01:00,
2013-03-28 23:21:00,31.6,21.9,29.96,North,360,0.0,0.0,67,0.00,,---,0.00,VWS V14.01,2013-03-29 05:21:00,
2013-03-28 23:31:00,32.2,22.1,29.97,North,5,0.0,0.0,66,0.00,,---,0.00,VWS V14.01,2013-03-29 05:31:00,
2013-03-28 23:51:00,32.4,20.9,29.97,North,5,0.0,0.0,62,0.00,,---,0.00,VWS V14.01,2013-03-29 05:51:00,